Domingos Martins, Brazil
Current Conditions -  °F | °C
As of 11:00 PM on Monday 20 Oct 2014 (Local Time) from SBVT Reporting Station
Overcast Overcast  
Wind Chill: 77°   Ceiling: 8000
Heat Index: 79°   Visibility: 4mi
Dew Point: 70°   Wind: 8mph
Humidity: 78%   Direction: 210°SSW
Pressure: 30"   Gusts: NA
Location:  20.36°S, 40.66°W
Report Text: SBVT 210200Z 21007KT 7000 SCT015 OVC080 25/21 Q1016
Loading
Personal Weather Stations






























Interactive Weather Map
Tropical Storm Tracking
New forecast layout! Learn more

10-Day Weather Forecast

Advertisements
Track Severe Weather on mobile